createdAt,value
2023-04-02T00:01:18.421Z,15.10
2023-04-02T00:03:53.920Z,16.60
2023-04-02T00:06:33.280Z,17.80
2023-04-02T00:09:23.528Z,17.90
2023-04-02T00:11:55.841Z,17.70
2023-04-02T00:14:23.936Z,18.80
2023-04-02T00:16:54.589Z,17.70
2023-04-02T00:19:45.738Z,17.00
2023-04-02T00:22:21.532Z,16.60
2023-04-02T00:24:54.542Z,17.20
2023-04-02T00:27:23.410Z,16.90
2023-04-02T00:29:54.180Z,17.00
2023-04-02T00:32:28.493Z,17.10
2023-04-02T00:34:57.751Z,17.80
2023-04-02T00:37:29.207Z,16.70
2023-04-02T00:40:10.655Z,16.80
2023-04-02T00:42:40.280Z,15.60
2023-04-02T00:45:22.700Z,16.40
2023-04-02T00:47:52.071Z,16.90
2023-04-02T00:50:42.864Z,15.20
2023-04-02T00:53:24.072Z,15.10
2023-04-02T00:55:52.628Z,15.80
2023-04-02T00:58:30.019Z,15.40
2023-04-02T01:00:59.586Z,15.80
2023-04-02T01:03:35.122Z,16.60
2023-04-02T01:06:11.866Z,15.30
2023-04-02T01:09:18.554Z,17.20
2023-04-02T01:12:02.221Z,16.40
2023-04-02T01:15:00.428Z,16.70
2023-04-02T01:17:43.751Z,15.80
2023-04-02T01:20:38.224Z,17.10
2023-04-02T01:23:13.678Z,16.80
2023-04-02T01:25:48.134Z,17.20
2023-04-02T01:28:22.516Z,17.70
2023-04-02T01:30:57.387Z,17.20
2023-04-02T01:33:30.381Z,17.60
2023-04-02T01:36:21.630Z,16.90
2023-04-02T01:39:02.419Z,16.70
2023-04-02T01:41:38.555Z,17.60
2023-04-02T01:46:42.464Z,16.40
2023-04-02T01:49:21.593Z,16.00
2023-04-02T01:51:57.000Z,15.80
2023-04-02T01:54:28.899Z,16.20
2023-04-02T01:56:57.586Z,16.10
2023-04-02T01:59:26.855Z,15.40
2023-04-02T02:02:04.378Z,14.40
2023-04-02T02:04:34.392Z,13.90
2023-04-02T02:07:03.126Z,15.10
2023-04-02T02:09:38.194Z,14.20
2023-04-02T02:12:06.762Z,14.30
2023-04-02T02:14:34.840Z,15.50
2023-04-02T02:17:05.014Z,14.30
2023-04-02T02:19:37.604Z,13.90
2023-04-02T02:22:18.002Z,9.90
2023-04-02T02:24:46.060Z,13.40
2023-04-02T02:27:22.793Z,13.40
2023-04-02T02:30:09.539Z,13.00
2023-04-02T02:32:45.936Z,13.60
2023-04-02T02:35:36.272Z,13.60
2023-04-02T02:38:34.437Z,13.90
2023-04-02T02:41:41.541Z,12.20
2023-04-02T02:44:09.675Z,13.50
2023-04-02T02:46:43.602Z,15.00
2023-04-02T02:49:22.478Z,13.90
2023-04-02T02:51:58.572Z,14.00
2023-04-02T02:54:34.320Z,13.50
2023-04-02T02:57:06.978Z,12.30
2023-04-02T02:59:36.549Z,13.80
2023-04-02T03:02:07.288Z,14.00
2023-04-02T03:04:36.570Z,14.10
2023-04-02T03:07:09.320Z,14.30
2023-04-02T03:10:06.727Z,14.70
2023-04-02T03:12:55.122Z,13.70
2023-04-02T03:18:38.047Z,14.70
2023-04-02T03:21:41.003Z,12.90
2023-04-02T03:24:18.754Z,13.20
2023-04-02T03:26:58.996Z,14.50
2023-04-02T03:29:33.125Z,14.70
2023-04-02T03:32:07.991Z,14.30
2023-04-02T03:34:42.935Z,12.90
2023-04-02T03:37:18.811Z,15.50
2023-04-02T03:40:10.217Z,13.60
2023-04-02T03:42:48.033Z,13.50
2023-04-02T03:45:22.368Z,12.90
2023-04-02T03:48:16.230Z,14.10
2023-04-02T03:50:51.192Z,13.40
2023-04-02T03:53:24.981Z,13.50
2023-04-02T03:55:54.665Z,13.70
2023-04-02T03:58:29.522Z,13.00
2023-04-02T04:01:24.447Z,12.90
2023-04-02T04:03:56.276Z,13.50
2023-04-02T04:06:29.939Z,13.80
2023-04-02T04:09:06.308Z,15.60
2023-04-02T04:11:38.622Z,13.30
2023-04-02T04:14:18.600Z,13.70
2023-04-02T04:16:57.240Z,13.70
2023-04-02T04:19:39.907Z,14.90
2023-04-02T04:22:11.138Z,13.00
2023-04-02T04:24:39.899Z,14.00
2023-04-02T04:27:34.694Z,14.40
2023-04-02T04:30:17.191Z,14.30
2023-04-02T04:32:58.243Z,13.10
2023-04-02T04:35:29.444Z,13.50
2023-04-02T04:38:04.216Z,13.50
2023-04-02T04:40:37.637Z,14.60
2023-04-02T04:43:19.074Z,14.30
2023-04-02T04:45:55.357Z,14.40
2023-04-02T04:51:19.764Z,14.50
2023-04-02T04:53:51.625Z,14.60
2023-04-02T04:56:26.272Z,15.10
2023-04-02T04:59:23.749Z,13.70
2023-04-02T05:01:56.213Z,14.20
2023-04-02T05:04:30.148Z,15.70
2023-04-02T05:07:19.046Z,15.30
2023-04-02T05:10:06.738Z,16.00
2023-04-02T05:12:40.963Z,16.40
2023-04-02T05:15:18.236Z,16.30
2023-04-02T05:17:49.180Z,16.50
2023-04-02T05:20:49.788Z,17.30
2023-04-02T05:23:25.922Z,18.10
2023-04-02T05:26:04.077Z,18.30
2023-04-02T05:28:43.211Z,16.40
2023-04-02T05:31:20.393Z,16.40
2023-04-02T05:33:50.006Z,17.10
2023-04-02T05:36:23.028Z,16.70
2023-04-02T05:38:54.758Z,17.20
2023-04-02T05:41:40.161Z,16.30
2023-04-02T05:44:27.510Z,16.10
2023-04-02T05:47:04.593Z,15.40
2023-04-02T05:49:32.591Z,15.40
2023-04-02T05:52:03.624Z,15.20
2023-04-02T05:54:44.511Z,15.40
2023-04-02T05:57:19.368Z,14.80
2023-04-02T05:59:51.620Z,14.90
2023-04-02T06:02:27.969Z,14.60
2023-04-02T06:05:05.622Z,14.20
2023-04-02T06:07:46.927Z,15.50
2023-04-02T06:10:24.971Z,14.40
2023-04-02T06:13:00.333Z,15.40
2023-04-02T06:15:31.241Z,14.50
2023-04-02T06:18:03.573Z,13.90
2023-04-02T06:20:32.512Z,16.00
2023-04-02T06:23:19.459Z,14.70
2023-04-02T06:25:55.584Z,13.90
2023-04-02T06:28:49.108Z,12.40
2023-04-02T06:31:28.947Z,12.10
2023-04-02T06:33:59.061Z,14.50
2023-04-02T06:36:29.917Z,13.70
2023-04-02T06:39:09.009Z,13.10
2023-04-02T06:41:37.742Z,15.00
2023-04-02T06:44:29.940Z,14.60
2023-04-02T06:47:44.308Z,14.10
2023-04-02T06:50:27.038Z,14.30
2023-04-02T06:52:59.321Z,14.00
2023-04-02T06:55:47.904Z,13.80
2023-04-02T06:58:21.500Z,13.50
2023-04-02T07:00:51.163Z,13.00
2023-04-02T07:03:31.688Z,12.30
2023-04-02T07:06:04.520Z,13.00
2023-04-02T07:08:34.052Z,13.00
2023-04-02T07:11:02.221Z,13.20
2023-04-02T07:13:30.633Z,13.70
2023-04-02T07:16:00.765Z,13.80
2023-04-02T07:18:58.775Z,12.20
2023-04-02T07:21:29.027Z,11.80
2023-04-02T07:23:57.821Z,11.80
2023-04-02T07:26:27.995Z,11.70
2023-04-02T07:28:56.713Z,10.20
2023-04-02T07:31:27.416Z,10.90
2023-04-02T07:34:00.876Z,9.30
2023-04-02T07:36:30.758Z,7.50
2023-04-02T07:38:59.362Z,4.60
2023-04-02T07:41:27.710Z,2.70
2023-04-02T07:43:55.921Z,2.70
2023-04-02T07:46:24.643Z,2.70
2023-04-02T07:48:52.598Z,2.00
2023-04-02T07:51:27.190Z,1.90
2023-04-02T07:53:56.412Z,2.10
2023-04-02T07:56:25.891Z,1.80
2023-04-02T07:58:53.825Z,1.60
2023-04-02T08:01:27.693Z,1.40
2023-04-02T08:03:58.086Z,1.90
2023-04-02T08:06:26.274Z,1.70
2023-04-02T08:08:54.305Z,1.50
2023-04-02T08:11:22.343Z,1.70
2023-04-02T08:13:52.418Z,2.00
2023-04-02T08:16:20.444Z,1.60
2023-04-02T08:18:48.863Z,1.40
2023-04-02T08:21:17.130Z,1.60
2023-04-02T08:23:45.871Z,1.50
2023-04-02T08:26:18.703Z,1.20
2023-04-02T08:28:46.708Z,1.60
2023-04-02T08:31:14.890Z,1.60
2023-04-02T08:33:43.027Z,1.20
2023-04-02T08:36:18.508Z,1.30
2023-04-02T08:38:46.986Z,1.60
2023-04-02T08:41:31.327Z,1.60
2023-04-02T08:44:14.664Z,2.40
2023-04-02T08:46:52.203Z,1.70
2023-04-02T08:49:29.580Z,1.30
2023-04-02T08:51:57.774Z,1.40
2023-04-02T08:54:29.495Z,1.40
2023-04-02T08:57:18.694Z,1.70
2023-04-02T08:59:48.017Z,1.70
2023-04-02T09:02:28.630Z,1.50
2023-04-02T09:05:00.142Z,1.80
2023-04-02T09:07:28.637Z,1.70
2023-04-02T09:09:58.147Z,1.60
2023-04-02T09:12:30.156Z,1.30
2023-04-02T09:15:10.755Z,1.30
2023-04-02T09:26:53.717Z,2.50
2023-04-02T09:29:43.569Z,1.90
2023-04-02T09:32:24.754Z,1.70
2023-04-02T09:35:12.440Z,2.10
2023-04-02T09:38:09.159Z,2.30
2023-04-02T09:40:49.905Z,2.10
2023-04-02T09:43:19.508Z,2.10
2023-04-02T09:46:16.179Z,2.20
2023-04-02T09:48:55.188Z,3.20
2023-04-02T09:51:35.148Z,1.70
2023-04-02T09:54:03.200Z,2.30
2023-04-02T09:56:40.001Z,1.70
2023-04-02T09:59:14.165Z,1.30
2023-04-02T10:01:44.372Z,1.60
2023-04-02T10:04:48.257Z,1.70
2023-04-02T10:07:39.087Z,1.60
2023-04-02T10:10:27.182Z,2.00
2023-04-02T10:13:00.375Z,2.30
2023-04-02T10:15:39.789Z,2.10
2023-04-02T10:18:40.721Z,1.30
2023-04-02T10:21:13.544Z,1.60
2023-04-02T10:23:41.884Z,1.40
2023-04-02T10:26:36.867Z,2.00
2023-04-02T10:29:29.432Z,1.90
2023-04-02T10:32:30.876Z,2.30
2023-04-02T10:35:04.324Z,1.50
2023-04-02T10:38:11.268Z,1.80
2023-04-02T10:40:58.299Z,2.00
2023-04-02T10:43:53.906Z,2.60
2023-04-02T10:46:52.009Z,2.00
2023-04-02T10:49:38.036Z,2.40
2023-04-02T10:52:13.781Z,2.40
2023-04-02T10:54:51.977Z,2.70
2023-04-02T10:57:31.593Z,1.80
2023-04-02T11:00:12.909Z,2.90
2023-04-02T11:03:03.081Z,3.60
2023-04-02T11:05:51.579Z,2.80
2023-04-02T11:08:42.456Z,2.50
2023-04-02T11:11:21.527Z,2.70
2023-04-02T11:13:59.342Z,3.00
2023-04-02T11:16:28.325Z,2.90
2023-04-02T11:19:14.789Z,2.90
2023-04-02T11:21:59.392Z,3.50
2023-04-02T11:24:37.165Z,3.70
2023-04-02T11:27:11.348Z,3.30
2023-04-02T11:29:43.928Z,2.90
2023-04-02T11:32:25.554Z,3.10
2023-04-02T11:35:06.442Z,3.10
2023-04-02T11:37:44.944Z,3.10
2023-04-02T11:40:14.077Z,2.90
2023-04-02T11:42:48.674Z,3.00
2023-04-02T11:45:28.858Z,3.10
2023-04-02T11:48:17.052Z,2.40
2023-04-02T11:50:46.382Z,2.70
2023-04-02T11:53:15.254Z,2.90
2023-04-02T11:56:06.569Z,2.50
2023-04-02T11:59:08.410Z,2.70
2023-04-02T12:01:52.336Z,2.80
2023-04-02T12:04:48.460Z,2.30
2023-04-02T12:07:56.612Z,2.70
2023-04-02T12:10:52.536Z,3.10
2023-04-02T12:13:42.599Z,2.40
2023-04-02T12:16:14.603Z,2.70
2023-04-02T12:18:47.052Z,3.30
2023-04-02T12:21:19.690Z,2.50
2023-04-02T12:23:51.994Z,3.30
2023-04-02T12:26:37.566Z,3.10
2023-04-02T12:29:24.002Z,3.60
2023-04-02T12:31:54.227Z,2.70
2023-04-02T12:34:25.052Z,5.10
2023-04-02T12:36:55.850Z,3.40
2023-04-02T12:39:26.686Z,2.50
2023-04-02T12:41:56.725Z,3.30
2023-04-02T12:44:27.680Z,3.00
2023-04-02T12:46:57.279Z,2.60
2023-04-02T12:49:38.332Z,3.00
2023-04-02T12:52:13.075Z,3.40
2023-04-02T12:55:17.147Z,3.70
2023-04-02T12:57:49.159Z,4.00
2023-04-02T13:00:30.230Z,3.20
2023-04-02T13:03:03.523Z,2.60
2023-04-02T13:05:42.682Z,3.10
2023-04-02T13:08:18.232Z,3.00
2023-04-02T13:10:52.371Z,2.50
2023-04-02T13:13:28.407Z,3.10
2023-04-02T13:18:45.449Z,3.20
2023-04-02T13:21:16.488Z,4.10
2023-04-02T13:23:46.103Z,4.90
2023-04-02T13:26:20.312Z,4.70
2023-04-02T13:29:10.014Z,3.50
2023-04-02T13:31:38.027Z,4.10
2023-04-02T13:34:06.024Z,3.50
2023-04-02T13:36:34.253Z,3.60
2023-04-02T13:39:02.179Z,3.90
2023-04-02T13:41:32.647Z,2.90
2023-04-02T13:44:02.614Z,3.60
2023-04-02T13:46:34.155Z,2.70
2023-04-02T13:49:02.653Z,2.50
2023-04-02T13:51:44.626Z,2.90
2023-04-02T13:54:20.599Z,2.70
2023-04-02T13:56:48.840Z,3.10
2023-04-02T13:59:16.985Z,3.20
2023-04-02T14:01:47.992Z,3.50
2023-04-02T14:04:21.853Z,3.80
2023-04-02T14:07:12.862Z,4.20
2023-04-02T14:10:08.734Z,4.00
2023-04-02T14:13:07.118Z,3.70
2023-04-02T14:15:58.238Z,3.10
2023-04-02T14:18:49.805Z,2.70
2023-04-02T14:21:33.397Z,2.70
2023-04-02T14:24:23.354Z,2.50
2023-04-02T14:27:05.787Z,3.40
2023-04-02T14:29:51.296Z,2.60
2023-04-02T14:32:31.660Z,2.60
2023-04-02T14:35:05.196Z,2.60
2023-04-02T14:37:48.608Z,2.40
2023-04-02T14:40:24.283Z,3.20
2023-04-02T14:43:17.783Z,4.30
2023-04-02T14:45:59.601Z,7.90
2023-04-02T14:48:47.658Z,3.00
2023-04-02T14:51:31.247Z,3.80
2023-04-02T14:54:03.003Z,3.90
2023-04-02T14:56:36.562Z,3.90
2023-04-02T14:59:36.952Z,4.50
2023-04-02T15:02:42.124Z,4.10
2023-04-02T15:06:14.169Z,4.50
2023-04-02T15:09:02.068Z,4.60
2023-04-02T15:11:36.055Z,4.80
2023-04-02T15:14:28.221Z,4.90
2023-04-02T15:16:56.494Z,4.50
2023-04-02T15:19:24.548Z,4.10
2023-04-02T15:22:01.071Z,4.10
2023-04-02T15:24:36.062Z,4.20
2023-04-02T15:27:25.443Z,3.70
2023-04-02T15:30:15.073Z,4.00
2023-04-02T15:32:43.742Z,4.50
2023-04-02T15:35:24.368Z,4.50
2023-04-02T15:38:24.281Z,5.50
2023-04-02T15:41:14.733Z,3.60
2023-04-02T15:44:17.873Z,5.40
2023-04-02T15:46:56.178Z,6.70
2023-04-02T15:49:42.840Z,4.80
2023-04-02T15:54:44.601Z,5.70
2023-04-02T15:57:46.977Z,4.90
2023-04-02T16:00:23.838Z,6.50
2023-04-02T16:03:06.759Z,6.70
2023-04-02T16:06:13.058Z,8.50
2023-04-02T16:09:06.457Z,9.70
2023-04-02T16:11:34.701Z,10.50
2023-04-02T16:14:18.301Z,15.40
2023-04-02T16:16:49.193Z,18.80
2023-04-02T16:19:35.212Z,14.10
2023-04-02T16:22:14.472Z,9.20
2023-04-02T16:24:42.562Z,8.60
2023-04-02T16:27:31.964Z,11.30
2023-04-02T16:30:24.303Z,9.80
2023-04-02T16:33:10.769Z,8.70
2023-04-02T16:35:51.459Z,7.90
2023-04-02T16:38:53.111Z,8.70
2023-04-02T16:41:48.401Z,8.70
2023-04-02T16:44:25.511Z,9.00
2023-04-02T16:47:06.081Z,13.80
2023-04-02T16:49:43.290Z,11.80
2023-04-02T16:52:26.100Z,9.90
2023-04-02T16:54:53.989Z,9.50
2023-04-02T16:57:29.879Z,11.80
2023-04-02T17:00:23.971Z,11.10
2023-04-02T17:03:30.237Z,8.70
2023-04-02T17:06:13.458Z,10.10
2023-04-02T17:08:52.922Z,9.50
2023-04-02T17:11:24.773Z,7.10
2023-04-02T17:14:06.346Z,8.80
2023-04-02T17:17:09.050Z,9.80
2023-04-02T17:19:37.807Z,8.70
2023-04-02T17:22:06.216Z,8.40
2023-04-02T17:24:43.679Z,7.70
2023-04-02T17:27:40.019Z,9.00
2023-04-02T17:30:26.851Z,12.10
2023-04-02T17:32:55.001Z,7.20
2023-04-02T17:35:41.976Z,7.50
2023-04-02T17:38:39.915Z,8.10
2023-04-02T17:41:23.891Z,7.90
2023-04-02T17:44:13.681Z,10.80
2023-04-02T17:46:54.836Z,8.50
2023-04-02T17:49:38.820Z,6.70
2023-04-02T17:52:24.632Z,6.20
2023-04-02T17:55:13.392Z,6.10
2023-04-02T17:57:44.544Z,6.30
2023-04-02T18:00:21.576Z,5.30
2023-04-02T18:03:03.028Z,6.00
2023-04-02T18:05:43.078Z,4.60
2023-04-02T18:08:25.705Z,4.30
2023-04-02T18:16:18.171Z,6.90
2023-04-02T18:19:31.248Z,6.30
2023-04-02T18:22:06.542Z,6.40
2023-04-02T18:25:06.982Z,7.70
2023-04-02T18:27:45.744Z,7.00
2023-04-02T18:30:33.599Z,6.50
2023-04-02T18:33:29.348Z,7.80
2023-04-02T18:36:28.523Z,8.00
2023-04-02T18:39:07.555Z,6.60
2023-04-02T18:42:05.464Z,8.10
2023-04-02T18:45:11.218Z,7.40
2023-04-02T18:48:10.908Z,6.30
2023-04-02T18:50:46.776Z,7.00
2023-04-02T18:56:13.823Z,5.80
2023-04-02T18:58:49.636Z,6.20
2023-04-02T19:01:46.087Z,5.30
2023-04-02T19:04:33.049Z,6.40
2023-04-02T19:09:48.468Z,7.50
2023-04-02T19:12:19.370Z,6.90
2023-04-02T19:14:50.940Z,8.00
2023-04-02T19:17:34.513Z,8.90
2023-04-02T19:20:15.114Z,7.50
2023-04-02T19:23:01.887Z,7.30
2023-04-02T19:25:43.354Z,8.80
2023-04-02T19:28:40.589Z,8.30
2023-04-02T19:31:11.811Z,7.20
2023-04-02T19:33:48.226Z,6.40
2023-04-02T19:36:18.892Z,7.20
2023-04-02T19:39:02.243Z,7.90
2023-04-02T19:41:41.437Z,6.70
2023-04-02T19:44:13.022Z,6.60
2023-04-02T19:46:41.786Z,6.30
2023-04-02T19:49:15.544Z,6.30
2023-04-02T19:51:44.080Z,6.60
2023-04-02T19:54:12.825Z,5.80
2023-04-02T19:56:42.903Z,5.60
2023-04-02T19:59:18.261Z,5.60
2023-04-02T20:01:47.565Z,6.30
2023-04-02T20:04:15.814Z,5.00
2023-04-02T20:06:43.848Z,5.10
2023-04-02T20:09:11.853Z,5.10
2023-04-02T20:11:40.564Z,5.40
2023-04-02T20:14:08.617Z,5.70
2023-04-02T20:16:38.861Z,4.90
2023-04-02T20:19:06.927Z,6.00
2023-04-02T20:21:38.514Z,5.90
2023-04-02T20:24:08.718Z,4.90
2023-04-02T20:26:36.928Z,5.30
2023-04-02T20:29:05.070Z,5.40
2023-04-02T20:31:33.149Z,5.00
2023-04-02T20:34:03.015Z,4.50
2023-04-02T20:36:31.821Z,4.90
2023-04-02T20:39:00.239Z,5.00
2023-04-02T20:41:28.333Z,4.90
2023-04-02T20:43:56.797Z,4.80
2023-04-02T20:46:25.393Z,4.90
2023-04-02T20:48:53.534Z,4.10
2023-04-02T20:51:21.958Z,4.20
2023-04-02T20:53:49.979Z,4.50
2023-04-02T20:56:19.180Z,4.10
2023-04-02T20:58:47.176Z,3.90
2023-04-02T21:01:28.220Z,4.50
2023-04-02T21:04:01.554Z,3.70
2023-04-02T21:06:32.399Z,4.00
2023-04-02T21:09:02.164Z,4.60
2023-04-02T21:11:30.587Z,4.60
2023-04-02T21:13:58.811Z,5.40
2023-04-02T21:16:29.568Z,12.10
2023-04-02T21:18:59.981Z,23.80
2023-04-02T21:21:28.731Z,7.70
2023-04-02T21:23:59.576Z,5.60
2023-04-02T21:26:29.265Z,7.90
2023-04-02T21:28:57.304Z,9.60
2023-04-02T21:31:29.191Z,9.60
2023-04-02T21:33:59.139Z,23.40
2023-04-02T21:36:30.946Z,8.10
2023-04-02T21:39:02.145Z,5.70
2023-04-02T21:41:33.070Z,6.70
2023-04-02T21:44:04.092Z,4.90
2023-04-02T21:46:36.373Z,6.10
2023-04-02T21:49:05.714Z,6.40
2023-04-02T21:51:35.807Z,4.90
2023-04-02T21:54:04.542Z,4.60
2023-04-02T21:56:35.685Z,4.00
2023-04-02T21:59:05.823Z,7.10
2023-04-02T22:01:39.343Z,4.80
2023-04-02T22:04:09.498Z,4.30
2023-04-02T22:06:40.095Z,4.40
2023-04-02T22:09:16.244Z,4.70
2023-04-02T22:11:56.008Z,4.80
2023-04-02T22:14:25.995Z,4.20
2023-04-02T22:16:54.476Z,4.80
2023-04-02T22:19:22.686Z,4.90
2023-04-02T22:21:50.831Z,6.40
2023-04-02T22:24:19.235Z,7.00
2023-04-02T22:26:47.297Z,5.20
2023-04-02T22:29:15.779Z,6.20
2023-04-02T22:31:44.876Z,4.90
2023-04-02T22:34:12.953Z,4.20
2023-04-02T22:36:41.350Z,5.00
2023-04-02T22:39:12.388Z,5.10
2023-04-02T22:41:41.072Z,5.00
2023-04-02T22:44:14.540Z,4.70
2023-04-02T22:46:42.832Z,4.50
2023-04-02T22:49:11.811Z,3.90
2023-04-02T22:51:39.971Z,4.30
2023-04-02T22:54:08.084Z,4.40
2023-04-02T22:56:37.574Z,5.00
2023-04-02T22:59:05.821Z,4.20
2023-04-02T23:01:36.145Z,5.40
2023-04-02T23:04:05.345Z,5.00
2023-04-02T23:06:33.552Z,4.10
2023-04-02T23:09:01.531Z,5.00
2023-04-02T23:11:29.547Z,5.20
2023-04-02T23:13:58.097Z,5.50
2023-04-02T23:16:28.918Z,4.70
2023-04-02T23:18:58.001Z,5.00
2023-04-02T23:21:26.375Z,4.10
2023-04-02T23:23:55.465Z,6.10
2023-04-02T23:26:29.142Z,4.60
2023-04-02T23:28:58.654Z,4.00
2023-04-02T23:31:27.348Z,4.80
2023-04-02T23:33:55.553Z,4.50
2023-04-02T23:36:31.759Z,4.50
2023-04-02T23:41:32.818Z,4.50
2023-04-02T23:44:01.254Z,4.20
2023-04-02T23:46:30.723Z,4.10
2023-04-02T23:48:59.870Z,6.00
2023-04-02T23:51:29.720Z,5.40
2023-04-02T23:53:57.790Z,5.70
2023-04-02T23:56:28.441Z,6.40
2023-04-02T23:58:56.387Z,6.00
